createdAt,value
2022-09-21T00:01:44.504Z,1.50
2022-09-21T00:04:11.070Z,1.70
2022-09-21T00:06:37.963Z,1.70
2022-09-21T00:09:05.241Z,1.50
2022-09-21T00:11:32.593Z,1.70
2022-09-21T00:14:01.263Z,2.15
2022-09-21T00:16:28.176Z,1.45
2022-09-21T00:18:55.077Z,1.80
2022-09-21T00:21:21.922Z,1.70
2022-09-21T00:23:49.155Z,1.67
2022-09-21T00:26:21.240Z,1.92
2022-09-21T00:28:51.995Z,1.90
2022-09-21T00:31:19.257Z,1.70
2022-09-21T00:33:46.400Z,2.35
2022-09-21T00:36:14.277Z,1.60
2022-09-21T00:38:41.365Z,2.30
2022-09-21T00:41:08.814Z,1.88
2022-09-21T00:43:36.983Z,2.28
2022-09-21T00:46:23.792Z,1.33
2022-09-21T00:48:50.677Z,2.40
2022-09-21T00:51:17.842Z,2.08
2022-09-21T00:53:44.788Z,2.03
2022-09-21T00:56:11.954Z,1.98
2022-09-21T00:58:40.921Z,1.80
2022-09-21T01:01:07.605Z,1.80
2022-09-21T01:03:34.370Z,2.60
2022-09-21T01:06:00.981Z,1.83
2022-09-21T01:08:28.477Z,1.73
2022-09-21T01:10:55.046Z,2.00
2022-09-21T01:13:30.202Z,1.73
2022-09-21T01:15:59.743Z,2.13
2022-09-21T01:18:35.175Z,1.98
2022-09-21T01:21:20.325Z,2.03
2022-09-21T01:23:50.001Z,2.17
2022-09-21T01:26:35.877Z,1.98
2022-09-21T01:29:11.777Z,1.80
2022-09-21T01:31:41.662Z,1.58
2022-09-21T01:34:11.946Z,1.90
2022-09-21T01:36:39.837Z,1.95
2022-09-21T01:39:14.430Z,1.85
2022-09-21T01:41:41.954Z,1.60
2022-09-21T01:44:15.801Z,1.90
2022-09-21T01:46:42.712Z,1.90
2022-09-21T01:49:17.797Z,1.90
2022-09-21T01:51:48.457Z,1.98
2022-09-21T01:54:20.110Z,1.80
2022-09-21T01:56:55.743Z,1.85
2022-09-21T01:59:25.380Z,1.55
2022-09-21T02:01:55.444Z,2.10
2022-09-21T02:04:22.181Z,1.90
2022-09-21T02:06:49.560Z,1.40
2022-09-21T02:09:17.238Z,1.92
2022-09-21T02:11:44.893Z,1.83
2022-09-21T02:14:16.553Z,1.70
2022-09-21T02:16:49.583Z,1.67
2022-09-21T02:19:16.165Z,1.83
2022-09-21T02:21:45.610Z,2.00
2022-09-21T02:24:22.725Z,1.75
2022-09-21T02:27:02.103Z,1.90
2022-09-21T02:29:33.063Z,1.75
2022-09-21T02:32:05.262Z,1.60
2022-09-21T02:34:55.277Z,1.75
2022-09-21T02:37:33.707Z,1.48
2022-09-21T02:40:07.641Z,1.70
2022-09-21T02:42:37.580Z,1.75
2022-09-21T02:45:13.307Z,1.77
2022-09-21T02:47:46.907Z,1.90
2022-09-21T02:50:16.535Z,1.65
2022-09-21T02:52:44.332Z,1.83
2022-09-21T02:55:11.479Z,1.77
2022-09-21T02:57:38.550Z,1.85
2022-09-21T03:00:05.759Z,1.60
2022-09-21T03:02:39.879Z,1.50
2022-09-21T03:05:07.116Z,1.65
2022-09-21T03:07:33.874Z,1.90
2022-09-21T03:10:00.576Z,1.55
2022-09-21T03:12:27.438Z,2.10
2022-09-21T03:14:54.025Z,2.15
2022-09-21T03:17:20.686Z,1.48
2022-09-21T03:19:47.399Z,2.42
2022-09-21T03:22:13.928Z,1.77
2022-09-21T03:24:46.380Z,2.00
2022-09-21T03:27:18.058Z,1.50
2022-09-21T03:29:45.128Z,1.80
2022-09-21T03:32:12.106Z,1.67
2022-09-21T03:34:38.723Z,2.17
2022-09-21T03:37:05.990Z,2.30
2022-09-21T03:39:32.596Z,1.70
2022-09-21T03:41:59.390Z,1.83
2022-09-21T03:44:26.766Z,1.98
2022-09-21T03:46:53.876Z,2.33
2022-09-21T03:49:20.548Z,2.70
2022-09-21T03:51:47.188Z,2.00
2022-09-21T03:54:13.846Z,1.80
2022-09-21T03:56:40.439Z,1.92
2022-09-21T03:59:10.625Z,2.05
2022-09-21T04:01:40.488Z,1.70
2022-09-21T04:04:07.126Z,1.90
2022-09-21T04:06:33.985Z,2.00
2022-09-21T04:09:02.449Z,2.17
2022-09-21T04:11:30.089Z,1.75
2022-09-21T04:13:57.058Z,2.28
2022-09-21T04:16:24.658Z,1.95
2022-09-21T04:18:51.481Z,2.15
2022-09-21T04:21:18.392Z,2.03
2022-09-21T04:23:45.061Z,2.22
2022-09-21T04:26:26.123Z,2.20
2022-09-21T04:28:53.799Z,2.35
2022-09-21T04:31:20.877Z,2.03
2022-09-21T04:33:48.441Z,2.00
2022-09-21T04:36:15.616Z,2.35
2022-09-21T04:38:42.246Z,2.17
2022-09-21T04:41:08.943Z,2.03
2022-09-21T04:43:35.610Z,2.22
2022-09-21T04:46:09.529Z,2.15
2022-09-21T04:48:36.261Z,2.15
2022-09-21T04:51:03.359Z,2.40
2022-09-21T04:53:30.527Z,2.15
2022-09-21T04:55:57.124Z,2.17
2022-09-21T04:58:24.658Z,2.20
2022-09-21T05:00:52.005Z,2.53
2022-09-21T05:03:19.035Z,2.45
2022-09-21T05:05:49.738Z,2.58
2022-09-21T05:08:16.575Z,2.05
2022-09-21T05:10:43.839Z,2.30
2022-09-21T05:13:10.572Z,2.33
2022-09-21T05:15:38.561Z,2.20
2022-09-21T05:18:05.533Z,2.28
2022-09-21T05:20:32.414Z,2.58
2022-09-21T05:23:02.390Z,2.35
2022-09-21T05:25:29.083Z,2.33
2022-09-21T05:27:55.710Z,2.60
2022-09-21T05:30:22.664Z,2.35
2022-09-21T05:32:54.869Z,2.90
2022-09-21T05:35:31.241Z,2.97
2022-09-21T05:38:13.744Z,2.60
2022-09-21T05:40:40.569Z,3.05
2022-09-21T05:43:08.284Z,2.67
2022-09-21T05:45:35.031Z,3.08
2022-09-21T05:48:07.985Z,2.80
2022-09-21T05:50:53.003Z,2.67
2022-09-21T05:53:19.545Z,3.13
2022-09-21T05:55:51.908Z,3.38
2022-09-21T05:58:18.607Z,2.95
2022-09-21T06:01:03.798Z,3.05
2022-09-21T06:03:31.205Z,3.05
2022-09-21T06:05:58.202Z,3.05
2022-09-21T06:08:25.505Z,3.60
2022-09-21T06:10:52.697Z,3.33
2022-09-21T06:13:19.315Z,3.00
2022-09-21T06:15:45.980Z,3.03
2022-09-21T06:18:17.552Z,3.00
2022-09-21T06:20:44.730Z,3.20
2022-09-21T06:23:12.905Z,3.28
2022-09-21T06:25:39.655Z,2.88
2022-09-21T06:28:07.417Z,3.05
2022-09-21T06:30:34.845Z,3.42
2022-09-21T06:33:02.239Z,2.60
2022-09-21T06:35:29.825Z,2.97
2022-09-21T06:38:07.760Z,3.47
2022-09-21T06:40:35.710Z,3.72
2022-09-21T06:43:03.375Z,3.08
2022-09-21T06:45:31.010Z,3.00
2022-09-21T06:47:57.938Z,2.88
2022-09-21T06:50:24.779Z,2.65
2022-09-21T06:52:51.424Z,2.75
2022-09-21T06:55:18.105Z,4.25
2022-09-21T06:57:45.438Z,3.05
2022-09-21T07:00:12.783Z,3.40
2022-09-21T07:02:42.835Z,3.30
2022-09-21T07:05:09.484Z,2.95
2022-09-21T07:07:36.470Z,2.95
2022-09-21T07:10:05.478Z,2.90
2022-09-21T07:12:35.204Z,3.58
2022-09-21T07:15:02.389Z,2.72
2022-09-21T07:17:32.922Z,2.42
2022-09-21T07:19:59.647Z,3.25
2022-09-21T07:22:26.388Z,2.33
2022-09-21T07:24:52.971Z,2.95
2022-09-21T07:27:19.676Z,2.40
2022-09-21T07:29:46.248Z,2.55
2022-09-21T07:32:13.426Z,2.85
2022-09-21T07:34:40.000Z,2.28
2022-09-21T07:37:07.003Z,2.60
2022-09-21T07:39:33.604Z,2.60
2022-09-21T07:42:00.154Z,2.88
2022-09-21T07:44:26.976Z,2.65
2022-09-21T07:46:53.581Z,2.20
2022-09-21T07:49:20.198Z,2.22
2022-09-21T07:51:46.923Z,2.05
2022-09-21T07:54:15.807Z,2.20
2022-09-21T07:56:42.787Z,2.00
2022-09-21T07:59:11.327Z,2.28
2022-09-21T08:01:38.928Z,2.20
2022-09-21T08:04:09.009Z,1.98
2022-09-21T08:06:36.463Z,1.77
2022-09-21T08:09:03.733Z,2.05
2022-09-21T08:11:31.456Z,1.75
2022-09-21T08:13:59.364Z,1.77
2022-09-21T08:16:26.775Z,1.90
2022-09-21T08:18:53.498Z,2.45
2022-09-21T08:21:20.581Z,1.80
2022-09-21T08:23:50.265Z,1.75
2022-09-21T08:26:20.865Z,1.80
2022-09-21T08:28:51.548Z,2.25
2022-09-21T08:31:20.234Z,1.73
2022-09-21T08:33:47.482Z,1.67
2022-09-21T08:36:14.061Z,2.05
2022-09-21T08:38:40.766Z,1.88
2022-09-21T08:41:14.099Z,1.50
2022-09-21T08:43:42.185Z,1.55
2022-09-21T08:46:35.279Z,1.58
2022-09-21T08:49:02.108Z,1.95
2022-09-21T08:51:30.602Z,1.40
2022-09-21T08:53:59.636Z,1.55
2022-09-21T08:56:41.599Z,1.77
2022-09-21T08:59:15.428Z,1.73
2022-09-21T09:01:51.167Z,1.40
2022-09-21T09:04:24.015Z,1.15
2022-09-21T09:07:02.875Z,1.75
2022-09-21T09:09:35.341Z,1.40
2022-09-21T09:12:10.050Z,1.25
2022-09-21T09:14:40.676Z,1.40
2022-09-21T09:17:10.040Z,1.45
2022-09-21T09:19:42.697Z,1.80
2022-09-21T09:22:12.105Z,1.38
2022-09-21T09:24:41.968Z,1.15
2022-09-21T09:27:30.518Z,1.60
2022-09-21T09:30:13.266Z,1.55
2022-09-21T09:32:42.694Z,1.33
2022-09-21T09:35:15.490Z,1.50
2022-09-21T09:37:42.846Z,1.48
2022-09-21T09:40:12.953Z,1.35
2022-09-21T09:42:45.531Z,1.10
2022-09-21T09:45:15.169Z,1.13
2022-09-21T09:47:59.068Z,1.45
2022-09-21T09:50:27.981Z,1.17
2022-09-21T09:53:00.082Z,1.38
2022-09-21T09:55:30.353Z,1.20
2022-09-21T09:57:57.047Z,1.25
2022-09-21T10:00:23.654Z,1.23
2022-09-21T10:02:50.358Z,1.40
2022-09-21T10:05:21.490Z,1.23
2022-09-21T10:07:48.179Z,1.33
2022-09-21T10:10:33.129Z,1.00
2022-09-21T10:13:06.935Z,1.25
2022-09-21T10:15:33.781Z,1.20
2022-09-21T10:18:06.652Z,1.30
2022-09-21T10:20:33.320Z,1.13
2022-09-21T10:23:00.545Z,1.50
2022-09-21T10:25:27.188Z,1.50
2022-09-21T10:27:55.174Z,1.63
2022-09-21T10:30:31.102Z,1.20
2022-09-21T10:32:58.584Z,1.10
2022-09-21T10:35:26.016Z,1.42
2022-09-21T10:38:22.462Z,1.35
2022-09-21T10:40:50.159Z,1.35
2022-09-21T10:43:34.375Z,1.02
2022-09-21T10:46:02.122Z,1.25
2022-09-21T10:48:29.424Z,1.17
2022-09-21T10:50:56.784Z,1.40
2022-09-21T10:53:34.242Z,1.00
2022-09-21T10:56:15.456Z,1.30
2022-09-21T10:59:02.462Z,1.67
2022-09-21T11:01:30.433Z,1.13
2022-09-21T11:04:03.205Z,1.05
2022-09-21T11:06:31.669Z,1.00
2022-09-21T11:09:05.267Z,1.20
2022-09-21T11:11:50.669Z,1.10
2022-09-21T11:14:17.212Z,1.00
2022-09-21T11:16:46.984Z,1.00
2022-09-21T11:19:28.988Z,1.00
2022-09-21T11:22:04.555Z,0.80
2022-09-21T11:24:31.149Z,0.70
2022-09-21T11:27:04.963Z,1.00
2022-09-21T11:29:37.018Z,1.25
2022-09-21T11:32:18.619Z,1.35
2022-09-21T11:35:03.855Z,1.10
2022-09-21T11:37:47.733Z,1.00
2022-09-21T11:40:20.216Z,0.90
2022-09-21T11:42:56.154Z,0.90
2022-09-21T11:45:28.822Z,1.13
2022-09-21T11:48:04.686Z,0.80
2022-09-21T11:50:38.633Z,1.02
2022-09-21T11:53:05.220Z,0.90
2022-09-21T11:55:32.694Z,1.08
2022-09-21T11:58:09.402Z,0.93
2022-09-21T12:00:59.492Z,1.00
2022-09-21T12:03:50.765Z,1.13
2022-09-21T12:06:36.124Z,0.90
2022-09-21T12:09:02.728Z,1.50
2022-09-21T12:11:37.478Z,1.20
2022-09-21T12:14:15.394Z,1.02
2022-09-21T12:16:47.267Z,0.98
2022-09-21T12:19:16.828Z,1.13
2022-09-21T12:21:48.065Z,0.93
2022-09-21T12:24:21.108Z,0.90
2022-09-21T12:26:57.102Z,1.00
2022-09-21T12:29:27.541Z,0.95
2022-09-21T12:32:01.612Z,0.93
2022-09-21T12:34:30.400Z,0.88
2022-09-21T12:37:14.141Z,1.10
2022-09-21T12:39:51.629Z,0.90
2022-09-21T12:42:30.390Z,0.98
2022-09-21T12:45:00.685Z,1.00
2022-09-21T12:47:43.902Z,1.08
2022-09-21T12:50:18.523Z,1.10
2022-09-21T12:52:46.072Z,0.90
2022-09-21T12:55:22.113Z,0.73
2022-09-21T12:58:15.110Z,0.60
2022-09-21T13:00:49.544Z,0.90
2022-09-21T13:03:45.663Z,0.80
2022-09-21T13:06:12.382Z,0.88
2022-09-21T13:08:42.052Z,0.88
2022-09-21T13:11:09.264Z,0.80
2022-09-21T13:13:40.124Z,0.70
2022-09-21T13:16:07.906Z,0.60
2022-09-21T13:18:36.775Z,0.70
2022-09-21T13:21:20.367Z,0.73
2022-09-21T13:24:05.580Z,0.60
2022-09-21T13:27:06.603Z,0.68
2022-09-21T13:29:34.347Z,0.95
2022-09-21T13:32:13.916Z,0.88
2022-09-21T13:34:44.360Z,1.30
2022-09-21T13:37:14.369Z,0.98
2022-09-21T13:39:50.215Z,0.70
2022-09-21T13:42:34.963Z,0.80
2022-09-21T13:45:19.688Z,0.70
2022-09-21T13:47:47.706Z,0.70
2022-09-21T13:50:28.500Z,0.93
2022-09-21T13:52:58.700Z,0.57
2022-09-21T13:55:28.543Z,0.80
2022-09-21T13:57:56.386Z,0.70
2022-09-21T14:00:22.984Z,0.80
2022-09-21T14:02:53.752Z,0.70
2022-09-21T14:05:35.691Z,0.77
2022-09-21T14:08:05.257Z,0.80
2022-09-21T14:10:33.743Z,0.90
2022-09-21T14:13:00.972Z,0.88
2022-09-21T14:15:32.531Z,0.77
2022-09-21T14:18:22.494Z,0.70
2022-09-21T14:21:18.659Z,0.80
2022-09-21T14:24:05.092Z,1.15
2022-09-21T14:26:33.762Z,0.60
2022-09-21T14:29:06.834Z,0.80
2022-09-21T14:31:36.736Z,0.77
2022-09-21T14:34:04.626Z,0.60
2022-09-21T14:36:41.413Z,0.57
2022-09-21T14:39:16.568Z,0.50
2022-09-21T14:41:44.188Z,0.70
2022-09-21T14:44:29.451Z,0.95
2022-09-21T14:46:59.707Z,0.50
2022-09-21T14:49:38.413Z,0.60
2022-09-21T14:52:22.249Z,0.70
2022-09-21T14:55:10.145Z,0.80
2022-09-21T14:57:51.803Z,0.80
2022-09-21T15:00:21.830Z,0.85
2022-09-21T15:02:52.018Z,0.73
2022-09-21T15:05:23.174Z,0.70
2022-09-21T15:08:14.414Z,0.60
2022-09-21T15:11:04.124Z,0.65
2022-09-21T15:13:36.323Z,0.60
2022-09-21T15:16:17.755Z,0.70
2022-09-21T15:18:48.308Z,0.70
2022-09-21T15:21:24.176Z,0.60
2022-09-21T15:23:53.237Z,0.73
2022-09-21T15:26:26.778Z,0.70
2022-09-21T15:29:10.761Z,0.70
2022-09-21T15:31:38.799Z,0.50
2022-09-21T15:34:09.420Z,0.70
2022-09-21T15:36:38.181Z,0.60
2022-09-21T15:39:19.942Z,0.70
2022-09-21T15:41:48.976Z,0.57
2022-09-21T15:44:17.032Z,0.75
2022-09-21T15:46:46.802Z,0.90
2022-09-21T15:49:22.075Z,0.85
2022-09-21T15:51:57.244Z,0.50
2022-09-21T15:54:29.976Z,0.82
2022-09-21T15:56:56.944Z,0.80
2022-09-21T15:59:23.632Z,0.80
2022-09-21T16:01:52.264Z,0.80
2022-09-21T16:04:27.159Z,0.80
2022-09-21T16:07:03.291Z,0.60
2022-09-21T16:09:38.390Z,0.95
2022-09-21T16:12:23.370Z,0.82
2022-09-21T16:14:56.774Z,0.65
2022-09-21T16:17:29.573Z,0.43
2022-09-21T16:19:59.062Z,0.73
2022-09-21T16:22:25.658Z,0.77
2022-09-21T16:24:55.395Z,0.60
2022-09-21T16:27:26.906Z,0.60
2022-09-21T16:29:54.452Z,0.60
2022-09-21T16:32:27.395Z,0.63
2022-09-21T16:35:13.941Z,0.70
2022-09-21T16:37:42.127Z,0.80
2022-09-21T16:40:09.935Z,1.30
2022-09-21T16:42:36.681Z,0.70
2022-09-21T16:45:10.285Z,0.90
2022-09-21T16:47:37.734Z,1.10
2022-09-21T16:50:09.592Z,0.80
2022-09-21T16:52:36.214Z,0.73
2022-09-21T16:55:02.846Z,0.70
2022-09-21T16:57:29.527Z,0.65
2022-09-21T16:59:56.431Z,0.70
2022-09-21T17:02:23.585Z,0.70
2022-09-21T17:04:50.263Z,0.50
2022-09-21T17:07:17.130Z,0.70
2022-09-21T17:09:46.380Z,0.70
2022-09-21T17:12:14.298Z,0.65
2022-09-21T17:14:45.716Z,0.82
2022-09-21T17:17:17.189Z,0.68
2022-09-21T17:19:46.494Z,0.50
2022-09-21T17:22:19.633Z,0.60
2022-09-21T17:24:50.875Z,0.70
2022-09-21T17:27:20.006Z,0.77
2022-09-21T17:29:49.885Z,0.80
2022-09-21T17:32:20.408Z,0.50
2022-09-21T17:34:50.163Z,1.08
2022-09-21T17:37:16.869Z,0.77
2022-09-21T17:39:44.968Z,0.60
2022-09-21T17:42:18.964Z,0.60
2022-09-21T17:44:59.694Z,0.70
2022-09-21T17:47:29.158Z,0.68
2022-09-21T17:49:59.095Z,0.70
2022-09-21T17:52:44.698Z,0.70
2022-09-21T17:55:12.692Z,0.93
2022-09-21T17:57:59.289Z,0.93
2022-09-21T18:00:45.545Z,1.15
2022-09-21T18:03:23.381Z,0.82
2022-09-21T18:05:51.106Z,1.10
2022-09-21T18:08:17.967Z,0.65
2022-09-21T18:10:45.738Z,0.60
2022-09-21T18:13:33.073Z,0.90
2022-09-21T18:16:15.706Z,0.90
2022-09-21T18:18:45.773Z,0.63
2022-09-21T18:21:27.600Z,0.85
2022-09-21T18:24:09.706Z,0.90
2022-09-21T18:26:38.190Z,0.88
2022-09-21T18:29:22.523Z,0.93
2022-09-21T18:32:03.649Z,0.82
2022-09-21T18:34:46.528Z,1.00
2022-09-21T18:37:33.590Z,1.00
2022-09-21T18:40:21.987Z,1.35
2022-09-21T18:43:07.677Z,1.92
2022-09-21T18:45:40.856Z,1.83
2022-09-21T18:48:36.863Z,2.20
2022-09-21T18:51:15.881Z,1.60
2022-09-21T18:53:56.415Z,1.05
2022-09-21T18:56:27.852Z,1.20
2022-09-21T18:58:54.779Z,1.23
2022-09-21T19:01:22.825Z,0.90
2022-09-21T19:03:50.253Z,0.82
2022-09-21T19:06:32.577Z,0.65
2022-09-21T19:09:02.083Z,0.70
2022-09-21T19:11:32.311Z,1.05
2022-09-21T19:13:59.029Z,1.08
2022-09-21T19:16:28.418Z,0.80
2022-09-21T19:19:17.492Z,0.77
2022-09-21T19:21:50.598Z,1.00
2022-09-21T19:24:26.902Z,0.90
2022-09-21T19:27:11.655Z,1.33
2022-09-21T19:29:44.645Z,0.75
2022-09-21T19:32:22.792Z,0.85
2022-09-21T19:34:50.502Z,1.10
2022-09-21T19:37:17.110Z,0.60
2022-09-21T19:39:43.791Z,0.80
2022-09-21T19:42:21.029Z,1.02
2022-09-21T19:44:57.914Z,1.00
2022-09-21T19:47:29.411Z,1.00
2022-09-21T19:49:58.912Z,0.90
2022-09-21T19:52:29.240Z,0.80
2022-09-21T19:55:14.488Z,0.77
2022-09-21T19:57:59.878Z,0.80
2022-09-21T20:00:26.722Z,0.90
2022-09-21T20:03:00.602Z,0.60
2022-09-21T20:05:45.980Z,0.82
2022-09-21T20:08:12.653Z,0.93
2022-09-21T20:10:48.650Z,1.02
2022-09-21T20:13:15.206Z,0.88
2022-09-21T20:15:46.840Z,1.13
2022-09-21T20:18:29.973Z,0.80
2022-09-21T20:20:57.471Z,0.80
2022-09-21T20:23:24.500Z,1.10
2022-09-21T20:25:56.609Z,1.70
2022-09-21T20:28:23.412Z,1.95
2022-09-21T20:30:50.484Z,1.35
2022-09-21T20:33:22.693Z,0.90
2022-09-21T20:35:50.162Z,0.90
2022-09-21T20:38:18.677Z,0.90
2022-09-21T20:40:45.935Z,1.00
2022-09-21T20:43:14.183Z,1.10
2022-09-21T20:45:41.210Z,1.00
2022-09-21T20:48:17.600Z,1.25
2022-09-21T20:50:48.967Z,0.95
2022-09-21T20:53:15.664Z,0.80
2022-09-21T20:55:43.760Z,0.90
2022-09-21T20:58:11.555Z,1.05
2022-09-21T21:00:38.209Z,0.82
2022-09-21T21:03:05.310Z,0.90
2022-09-21T21:05:32.793Z,0.93
2022-09-21T21:07:59.420Z,0.80
2022-09-21T21:10:25.984Z,0.90
2022-09-21T21:12:52.652Z,1.40
2022-09-21T21:15:19.271Z,0.80
2022-09-21T21:17:47.122Z,0.70
2022-09-21T21:20:13.865Z,0.77
2022-09-21T21:22:40.434Z,0.80
2022-09-21T21:25:07.211Z,1.02
2022-09-21T21:27:33.928Z,0.90
2022-09-21T21:30:01.159Z,0.90
2022-09-21T21:32:28.206Z,1.17
2022-09-21T21:34:55.751Z,0.95
2022-09-21T21:37:24.487Z,0.93
2022-09-21T21:39:51.666Z,0.85
2022-09-21T21:42:18.778Z,1.00
2022-09-21T21:44:46.648Z,0.90
2022-09-21T21:47:38.811Z,0.85
2022-09-21T21:50:00.828Z,0.82
2022-09-21T21:52:27.507Z,1.00
2022-09-21T21:54:54.587Z,1.27
2022-09-21T21:57:21.180Z,1.00
2022-09-21T21:59:47.807Z,1.00
2022-09-21T22:02:15.354Z,0.88
2022-09-21T22:04:42.147Z,1.00
2022-09-21T22:07:08.767Z,1.00
2022-09-21T22:09:35.448Z,0.88
2022-09-21T22:12:02.511Z,0.80
2022-09-21T22:14:29.126Z,0.82
2022-09-21T22:16:56.309Z,0.95
2022-09-21T22:19:22.917Z,1.20
2022-09-21T22:21:54.037Z,1.20
2022-09-21T22:24:21.507Z,1.23
2022-09-21T22:26:48.760Z,0.95
2022-09-21T22:29:17.071Z,1.10
2022-09-21T22:31:45.083Z,1.10
2022-09-21T22:34:14.570Z,1.05
2022-09-21T22:36:46.666Z,0.80
2022-09-21T22:39:13.443Z,1.98
2022-09-21T22:41:41.003Z,1.45
2022-09-21T22:44:08.179Z,1.02
2022-09-21T22:46:34.926Z,1.30
2022-09-21T22:49:01.775Z,1.17
2022-09-21T22:51:28.856Z,1.40
2022-09-21T22:53:55.855Z,0.90
2022-09-21T22:56:23.557Z,1.40
2022-09-21T22:58:51.354Z,1.10
2022-09-21T23:01:19.306Z,1.00
2022-09-21T23:03:47.324Z,0.88
2022-09-21T23:06:16.181Z,1.25
2022-09-21T23:08:43.817Z,0.90
2022-09-21T23:11:10.413Z,0.90
2022-09-21T23:13:37.080Z,1.10
2022-09-21T23:16:04.983Z,0.80
2022-09-21T23:18:31.841Z,1.00
2022-09-21T23:20:59.367Z,0.90
2022-09-21T23:23:26.278Z,1.15
2022-09-21T23:26:03.363Z,1.02
2022-09-21T23:28:30.039Z,1.10
2022-09-21T23:31:00.383Z,0.90
2022-09-21T23:33:37.114Z,1.00
2022-09-21T23:36:04.289Z,1.08
2022-09-21T23:38:30.960Z,0.80
2022-09-21T23:41:05.287Z,0.82
2022-09-21T23:43:32.445Z,1.00
2022-09-21T23:45:59.071Z,1.17
2022-09-21T23:48:26.911Z,1.00
2022-09-21T23:50:54.424Z,1.00
2022-09-21T23:53:21.394Z,1.10
2022-09-21T23:55:48.024Z,1.05
2022-09-21T23:58:15.477Z,1.30
